sensor_id;sensor_type;location;lat;lon;timestamp;P1;durP1;ratioP1;P2;durP2;ratioP2
65558;SDS011;52203;51.998;5.140;2023-08-08T00:01:41;7.63;;;2.38;;
65558;SDS011;52203;51.998;5.140;2023-08-08T00:04:08;6.50;;;2.03;;
65558;SDS011;52203;51.998;5.140;2023-08-08T00:06:35;9.70;;;2.28;;
65558;SDS011;52203;51.998;5.140;2023-08-08T00:09:01;5.85;;;2.15;;
65558;SDS011;52203;51.998;5.140;2023-08-08T00:11:27;6.35;;;2.28;;
65558;SDS011;52203;51.998;5.140;2023-08-08T00:13:53;10.00;;;2.65;;
65558;SDS011;52203;51.998;5.140;2023-08-08T00:16:18;8.95;;;2.60;;
65558;SDS011;52203;51.998;5.140;2023-08-08T00:18:44;9.27;;;2.67;;
65558;SDS011;52203;51.998;5.140;2023-08-08T00:21:10;6.53;;;2.10;;
65558;SDS011;52203;51.998;5.140;2023-08-08T00:23:35;11.43;;;2.63;;
65558;SDS011;52203;51.998;5.140;2023-08-08T00:26:01;7.80;;;2.78;;
65558;SDS011;52203;51.998;5.140;2023-08-08T00:28:26;10.35;;;3.45;;
65558;SDS011;52203;51.998;5.140;2023-08-08T00:30:52;7.65;;;2.28;;
65558;SDS011;52203;51.998;5.140;2023-08-08T00:33:17;8.85;;;2.35;;
65558;SDS011;52203;51.998;5.140;2023-08-08T00:35:43;8.50;;;2.83;;
65558;SDS011;52203;51.998;5.140;2023-08-08T00:38:09;9.52;;;2.80;;
65558;SDS011;52203;51.998;5.140;2023-08-08T00:40:35;9.15;;;2.42;;
65558;SDS011;52203;51.998;5.140;2023-08-08T00:43:01;8.02;;;2.95;;
65558;SDS011;52203;51.998;5.140;2023-08-08T00:45:27;8.48;;;2.50;;
65558;SDS011;52203;51.998;5.140;2023-08-08T00:47:53;12.38;;;2.67;;
65558;SDS011;52203;51.998;5.140;2023-08-08T00:50:19;6.82;;;2.70;;
65558;SDS011;52203;51.998;5.140;2023-08-08T00:52:45;8.07;;;2.50;;
65558;SDS011;52203;51.998;5.140;2023-08-08T00:55:11;8.77;;;2.88;;
65558;SDS011;52203;51.998;5.140;2023-08-08T00:57:37;9.98;;;2.35;;
65558;SDS011;52203;51.998;5.140;2023-08-08T01:00:04;11.98;;;3.13;;
65558;SDS011;52203;51.998;5.140;2023-08-08T01:02:35;9.02;;;2.65;;
65558;SDS011;52203;51.998;5.140;2023-08-08T01:05:01;11.93;;;3.15;;
65558;SDS011;52203;51.998;5.140;2023-08-08T01:07:33;10.75;;;2.47;;
65558;SDS011;52203;51.998;5.140;2023-08-08T01:10:10;8.00;;;2.80;;
65558;SDS011;52203;51.998;5.140;2023-08-08T01:12:50;7.22;;;2.45;;
65558;SDS011;52203;51.998;5.140;2023-08-08T01:15:19;7.03;;;2.67;;
65558;SDS011;52203;51.998;5.140;2023-08-08T01:17:45;6.07;;;2.15;;
65558;SDS011;52203;51.998;5.140;2023-08-08T01:20:12;9.20;;;2.42;;
65558;SDS011;52203;51.998;5.140;2023-08-08T01:25:49;9.35;;;3.15;;
65558;SDS011;52203;51.998;5.140;2023-08-08T01:28:15;8.23;;;2.70;;
65558;SDS011;52203;51.998;5.140;2023-08-08T01:30:40;7.35;;;2.53;;
65558;SDS011;52203;51.998;5.140;2023-08-08T01:33:07;7.90;;;2.65;;
65558;SDS011;52203;51.998;5.140;2023-08-08T01:35:34;7.88;;;2.97;;
65558;SDS011;52203;51.998;5.140;2023-08-08T01:38:11;9.20;;;3.27;;
65558;SDS011;52203;51.998;5.140;2023-08-08T01:40:50;8.32;;;2.90;;
65558;SDS011;52203;51.998;5.140;2023-08-08T01:43:15;6.15;;;2.67;;
65558;SDS011;52203;51.998;5.140;2023-08-08T01:45:43;11.40;;;3.40;;
65558;SDS011;52203;51.998;5.140;2023-08-08T01:48:10;7.53;;;3.35;;
65558;SDS011;52203;51.998;5.140;2023-08-08T01:50:36;10.68;;;3.00;;
65558;SDS011;52203;51.998;5.140;2023-08-08T01:53:02;9.15;;;3.03;;
65558;SDS011;52203;51.998;5.140;2023-08-08T01:55:28;12.40;;;3.30;;
65558;SDS011;52203;51.998;5.140;2023-08-08T01:57:54;9.82;;;3.50;;
65558;SDS011;52203;51.998;5.140;2023-08-08T02:00:20;10.07;;;3.22;;
65558;SDS011;52203;51.998;5.140;2023-08-08T02:02:45;9.60;;;3.10;;
65558;SDS011;52203;51.998;5.140;2023-08-08T02:05:11;6.90;;;2.90;;
65558;SDS011;52203;51.998;5.140;2023-08-08T02:07:36;8.05;;;3.30;;
65558;SDS011;52203;51.998;5.140;2023-08-08T02:10:02;8.52;;;3.63;;
65558;SDS011;52203;51.998;5.140;2023-08-08T02:12:28;7.57;;;3.35;;
65558;SDS011;52203;51.998;5.140;2023-08-08T02:14:55;10.93;;;3.17;;
65558;SDS011;52203;51.998;5.140;2023-08-08T02:17:24;11.77;;;3.67;;
65558;SDS011;52203;51.998;5.140;2023-08-08T02:19:50;6.07;;;3.47;;
65558;SDS011;52203;51.998;5.140;2023-08-08T02:22:16;8.20;;;3.13;;
65558;SDS011;52203;51.998;5.140;2023-08-08T02:24:42;8.88;;;3.88;;
65558;SDS011;52203;51.998;5.140;2023-08-08T02:27:07;7.85;;;3.35;;
65558;SDS011;52203;51.998;5.140;2023-08-08T02:29:33;11.73;;;3.50;;
65558;SDS011;52203;51.998;5.140;2023-08-08T02:31:58;9.65;;;3.75;;
65558;SDS011;52203;51.998;5.140;2023-08-08T02:34:24;9.45;;;3.42;;
65558;SDS011;52203;51.998;5.140;2023-08-08T02:36:50;9.70;;;3.65;;
65558;SDS011;52203;51.998;5.140;2023-08-08T02:39:15;9.07;;;3.25;;
65558;SDS011;52203;51.998;5.140;2023-08-08T02:41:41;10.35;;;3.53;;
65558;SDS011;52203;51.998;5.140;2023-08-08T02:44:07;12.65;;;3.58;;
65558;SDS011;52203;51.998;5.140;2023-08-08T02:46:33;10.30;;;3.70;;
65558;SDS011;52203;51.998;5.140;2023-08-08T02:48:58;7.45;;;4.07;;
65558;SDS011;52203;51.998;5.140;2023-08-08T02:51:24;10.52;;;3.78;;
65558;SDS011;52203;51.998;5.140;2023-08-08T02:53:49;8.27;;;3.60;;
65558;SDS011;52203;51.998;5.140;2023-08-08T02:56:15;9.98;;;4.18;;
65558;SDS011;52203;51.998;5.140;2023-08-08T02:58:40;8.10;;;3.83;;
65558;SDS011;52203;51.998;5.140;2023-08-08T03:01:06;15.65;;;5.00;;
65558;SDS011;52203;51.998;5.140;2023-08-08T03:03:31;11.98;;;3.90;;
65558;SDS011;52203;51.998;5.140;2023-08-08T03:05:57;11.88;;;3.85;;
65558;SDS011;52203;51.998;5.140;2023-08-08T03:08:22;10.80;;;4.43;;
65558;SDS011;52203;51.998;5.140;2023-08-08T03:10:49;11.55;;;4.40;;
65558;SDS011;52203;51.998;5.140;2023-08-08T03:13:14;12.45;;;4.30;;
65558;SDS011;52203;51.998;5.140;2023-08-08T03:15:40;10.88;;;4.47;;
65558;SDS011;52203;51.998;5.140;2023-08-08T03:18:05;11.80;;;4.50;;
65558;SDS011;52203;51.998;5.140;2023-08-08T03:20:31;13.57;;;4.50;;
65558;SDS011;52203;51.998;5.140;2023-08-08T03:22:56;15.90;;;4.65;;
65558;SDS011;52203;51.998;5.140;2023-08-08T03:25:22;8.70;;;3.83;;
65558;SDS011;52203;51.998;5.140;2023-08-08T03:27:47;10.82;;;4.45;;
65558;SDS011;52203;51.998;5.140;2023-08-08T03:30:13;8.27;;;3.85;;
65558;SDS011;52203;51.998;5.140;2023-08-08T03:32:39;12.05;;;4.40;;
65558;SDS011;52203;51.998;5.140;2023-08-08T03:35:04;9.52;;;3.55;;
65558;SDS011;52203;51.998;5.140;2023-08-08T03:37:31;8.70;;;3.35;;
65558;SDS011;52203;51.998;5.140;2023-08-08T03:39:56;8.43;;;4.18;;
65558;SDS011;52203;51.998;5.140;2023-08-08T03:42:22;9.48;;;3.58;;
65558;SDS011;52203;51.998;5.140;2023-08-08T03:44:47;8.07;;;3.80;;
65558;SDS011;52203;51.998;5.140;2023-08-08T03:47:13;12.95;;;3.90;;
65558;SDS011;52203;51.998;5.140;2023-08-08T03:49:38;10.50;;;4.78;;
65558;SDS011;52203;51.998;5.140;2023-08-08T03:52:04;10.13;;;4.10;;
65558;SDS011;52203;51.998;5.140;2023-08-08T03:54:30;12.00;;;4.07;;
65558;SDS011;52203;51.998;5.140;2023-08-08T03:56:55;11.68;;;4.50;;
65558;SDS011;52203;51.998;5.140;2023-08-08T03:59:21;9.38;;;3.88;;
65558;SDS011;52203;51.998;5.140;2023-08-08T04:01:46;9.63;;;3.90;;
65558;SDS011;52203;51.998;5.140;2023-08-08T04:04:12;10.30;;;3.63;;
65558;SDS011;52203;51.998;5.140;2023-08-08T04:06:38;9.20;;;4.18;;
65558;SDS011;52203;51.998;5.140;2023-08-08T04:09:03;10.95;;;4.78;;
65558;SDS011;52203;51.998;5.140;2023-08-08T04:11:29;10.05;;;4.65;;
65558;SDS011;52203;51.998;5.140;2023-08-08T04:13:55;14.68;;;4.72;;
65558;SDS011;52203;51.998;5.140;2023-08-08T04:16:20;10.40;;;4.00;;
65558;SDS011;52203;51.998;5.140;2023-08-08T04:18:46;8.73;;;3.95;;
65558;SDS011;52203;51.998;5.140;2023-08-08T04:21:12;7.95;;;3.60;;
65558;SDS011;52203;51.998;5.140;2023-08-08T04:23:37;8.57;;;3.58;;
65558;SDS011;52203;51.998;5.140;2023-08-08T04:26:03;8.60;;;3.53;;
65558;SDS011;52203;51.998;5.140;2023-08-08T04:28:28;8.68;;;3.53;;
65558;SDS011;52203;51.998;5.140;2023-08-08T04:30:54;11.80;;;3.10;;
65558;SDS011;52203;51.998;5.140;2023-08-08T04:33:19;7.00;;;3.42;;
65558;SDS011;52203;51.998;5.140;2023-08-08T04:35:45;10.23;;;3.00;;
65558;SDS011;52203;51.998;5.140;2023-08-08T04:38:13;6.97;;;3.33;;
65558;SDS011;52203;51.998;5.140;2023-08-08T04:40:40;6.35;;;3.00;;
65558;SDS011;52203;51.998;5.140;2023-08-08T04:43:06;9.90;;;3.45;;
65558;SDS011;52203;51.998;5.140;2023-08-08T04:45:31;9.55;;;2.70;;
65558;SDS011;52203;51.998;5.140;2023-08-08T04:47:57;6.60;;;2.58;;
65558;SDS011;52203;51.998;5.140;2023-08-08T04:50:23;7.35;;;2.67;;
65558;SDS011;52203;51.998;5.140;2023-08-08T04:52:48;9.05;;;2.90;;
65558;SDS011;52203;51.998;5.140;2023-08-08T04:55:14;4.93;;;2.35;;
65558;SDS011;52203;51.998;5.140;2023-08-08T04:57:39;6.18;;;2.30;;
65558;SDS011;52203;51.998;5.140;2023-08-08T05:00:05;7.68;;;2.22;;
65558;SDS011;52203;51.998;5.140;2023-08-08T05:02:33;6.55;;;2.50;;
65558;SDS011;52203;51.998;5.140;2023-08-08T05:04:59;5.15;;;2.60;;
65558;SDS011;52203;51.998;5.140;2023-08-08T05:07:26;4.28;;;2.10;;
65558;SDS011;52203;51.998;5.140;2023-08-08T05:09:52;4.00;;;1.90;;
65558;SDS011;52203;51.998;5.140;2023-08-08T05:12:17;5.35;;;2.00;;
65558;SDS011;52203;51.998;5.140;2023-08-08T05:14:43;6.53;;;1.95;;
65558;SDS011;52203;51.998;5.140;2023-08-08T05:17:08;5.93;;;1.50;;
65558;SDS011;52203;51.998;5.140;2023-08-08T05:19:34;6.38;;;1.73;;
65558;SDS011;52203;51.998;5.140;2023-08-08T05:21:59;4.00;;;1.50;;
65558;SDS011;52203;51.998;5.140;2023-08-08T05:24:25;5.90;;;1.67;;
65558;SDS011;52203;51.998;5.140;2023-08-08T05:26:51;3.13;;;1.70;;
65558;SDS011;52203;51.998;5.140;2023-08-08T05:29:18;6.00;;;2.15;;
65558;SDS011;52203;51.998;5.140;2023-08-08T05:31:44;4.97;;;1.60;;
65558;SDS011;52203;51.998;5.140;2023-08-08T05:34:11;4.15;;;1.63;;
65558;SDS011;52203;51.998;5.140;2023-08-08T05:36:36;4.50;;;1.50;;
65558;SDS011;52203;51.998;5.140;2023-08-08T05:39:02;7.07;;;1.75;;
65558;SDS011;52203;51.998;5.140;2023-08-08T05:41:28;1.92;;;1.20;;
65558;SDS011;52203;51.998;5.140;2023-08-08T05:43:53;2.85;;;1.42;;
65558;SDS011;52203;51.998;5.140;2023-08-08T05:46:19;2.78;;;1.20;;
65558;SDS011;52203;51.998;5.140;2023-08-08T05:48:44;2.95;;;1.30;;
65558;SDS011;52203;51.998;5.140;2023-08-08T05:51:11;6.03;;;1.30;;
65558;SDS011;52203;51.998;5.140;2023-08-08T05:53:37;3.75;;;1.50;;
65558;SDS011;52203;51.998;5.140;2023-08-08T05:56:03;3.00;;;1.33;;
65558;SDS011;52203;51.998;5.140;2023-08-08T05:58:29;4.60;;;1.10;;
65558;SDS011;52203;51.998;5.140;2023-08-08T06:00:54;2.85;;;1.40;;
65558;SDS011;52203;51.998;5.140;2023-08-08T06:03:20;3.15;;;1.30;;
65558;SDS011;52203;51.998;5.140;2023-08-08T06:05:45;2.72;;;1.30;;
65558;SDS011;52203;51.998;5.140;2023-08-08T06:08:11;3.92;;;1.30;;
65558;SDS011;52203;51.998;5.140;2023-08-08T06:10:38;4.32;;;1.55;;
65558;SDS011;52203;51.998;5.140;2023-08-08T06:13:04;5.10;;;1.40;;
65558;SDS011;52203;51.998;5.140;2023-08-08T06:15:29;4.32;;;1.40;;
65558;SDS011;52203;51.998;5.140;2023-08-08T06:17:55;6.40;;;1.40;;
65558;SDS011;52203;51.998;5.140;2023-08-08T06:20:20;3.50;;;1.10;;
65558;SDS011;52203;51.998;5.140;2023-08-08T06:22:46;2.05;;;1.10;;
65558;SDS011;52203;51.998;5.140;2023-08-08T06:25:12;3.45;;;1.10;;
65558;SDS011;52203;51.998;5.140;2023-08-08T06:27:38;3.90;;;1.15;;
65558;SDS011;52203;51.998;5.140;2023-08-08T06:30:03;3.72;;;1.23;;
65558;SDS011;52203;51.998;5.140;2023-08-08T06:32:30;3.10;;;1.25;;
65558;SDS011;52203;51.998;5.140;2023-08-08T06:34:55;6.38;;;1.20;;
65558;SDS011;52203;51.998;5.140;2023-08-08T06:37:21;6.07;;;1.10;;
65558;SDS011;52203;51.998;5.140;2023-08-08T06:39:46;2.15;;;1.00;;
65558;SDS011;52203;51.998;5.140;2023-08-08T06:42:12;3.35;;;1.33;;
65558;SDS011;52203;51.998;5.140;2023-08-08T06:44:41;3.25;;;1.20;;
65558;SDS011;52203;51.998;5.140;2023-08-08T06:47:08;2.72;;;1.25;;
65558;SDS011;52203;51.998;5.140;2023-08-08T06:49:34;5.20;;;1.15;;
65558;SDS011;52203;51.998;5.140;2023-08-08T06:51:59;5.57;;;1.40;;
65558;SDS011;52203;51.998;5.140;2023-08-08T06:54:25;2.63;;;0.90;;
65558;SDS011;52203;51.998;5.140;2023-08-08T06:56:53;3.88;;;1.10;;
65558;SDS011;52203;51.998;5.140;2023-08-08T06:59:19;5.25;;;1.65;;
65558;SDS011;52203;51.998;5.140;2023-08-08T07:01:44;2.58;;;1.02;;
65558;SDS011;52203;51.998;5.140;2023-08-08T07:04:10;3.63;;;1.00;;
65558;SDS011;52203;51.998;5.140;2023-08-08T07:06:35;2.55;;;0.98;;
65558;SDS011;52203;51.998;5.140;2023-08-08T07:09:01;4.00;;;0.80;;
65558;SDS011;52203;51.998;5.140;2023-08-08T07:11:27;2.15;;;1.02;;
65558;SDS011;52203;51.998;5.140;2023-08-08T07:13:53;1.67;;;0.70;;
65558;SDS011;52203;51.998;5.140;2023-08-08T07:16:18;4.13;;;0.85;;
65558;SDS011;52203;51.998;5.140;2023-08-08T07:18:44;3.60;;;1.00;;
65558;SDS011;52203;51.998;5.140;2023-08-08T07:21:09;2.85;;;0.70;;
65558;SDS011;52203;51.998;5.140;2023-08-08T07:23:35;1.17;;;0.70;;
65558;SDS011;52203;51.998;5.140;2023-08-08T07:26:01;3.35;;;0.80;;
65558;SDS011;52203;51.998;5.140;2023-08-08T07:28:26;3.10;;;0.77;;
65558;SDS011;52203;51.998;5.140;2023-08-08T07:30:52;2.78;;;0.93;;
65558;SDS011;52203;51.998;5.140;2023-08-08T07:33:17;5.45;;;1.27;;
65558;SDS011;52203;51.998;5.140;2023-08-08T07:35:43;3.78;;;0.82;;
65558;SDS011;52203;51.998;5.140;2023-08-08T07:38:08;2.75;;;0.90;;
65558;SDS011;52203;51.998;5.140;2023-08-08T07:40:34;3.10;;;0.82;;
65558;SDS011;52203;51.998;5.140;2023-08-08T07:43:00;1.80;;;0.77;;
65558;SDS011;52203;51.998;5.140;2023-08-08T07:45:26;3.15;;;0.70;;
65558;SDS011;52203;51.998;5.140;2023-08-08T07:47:51;2.20;;;0.70;;
65558;SDS011;52203;51.998;5.140;2023-08-08T07:50:17;3.25;;;1.05;;
65558;SDS011;52203;51.998;5.140;2023-08-08T07:52:43;2.17;;;0.75;;
65558;SDS011;52203;51.998;5.140;2023-08-08T07:55:09;3.83;;;0.88;;
65558;SDS011;52203;51.998;5.140;2023-08-08T07:57:34;1.88;;;0.90;;
65558;SDS011;52203;51.998;5.140;2023-08-08T08:00:00;2.25;;;0.70;;
65558;SDS011;52203;51.998;5.140;2023-08-08T08:02:37;2.13;;;0.70;;
65558;SDS011;52203;51.998;5.140;2023-08-08T08:05:03;5.60;;;0.90;;
65558;SDS011;52203;51.998;5.140;2023-08-08T08:07:33;2.78;;;0.73;;
65558;SDS011;52203;51.998;5.140;2023-08-08T08:09:59;1.95;;;0.70;;
65558;SDS011;52203;51.998;5.140;2023-08-08T08:12:25;2.53;;;0.90;;
65558;SDS011;52203;51.998;5.140;2023-08-08T08:14:51;1.88;;;0.70;;
65558;SDS011;52203;51.998;5.140;2023-08-08T08:17:16;3.35;;;0.88;;
65558;SDS011;52203;51.998;5.140;2023-08-08T08:19:42;6.68;;;0.80;;
65558;SDS011;52203;51.998;5.140;2023-08-08T08:22:07;3.13;;;0.75;;
65558;SDS011;52203;51.998;5.140;2023-08-08T08:24:33;2.35;;;0.70;;
65558;SDS011;52203;51.998;5.140;2023-08-08T08:26:58;2.88;;;0.82;;
65558;SDS011;52203;51.998;5.140;2023-08-08T08:29:24;2.38;;;0.70;;
65558;SDS011;52203;51.998;5.140;2023-08-08T08:31:50;2.15;;;0.60;;
65558;SDS011;52203;51.998;5.140;2023-08-08T08:34:15;1.25;;;0.63;;
65558;SDS011;52203;51.998;5.140;2023-08-08T08:36:41;2.67;;;0.70;;
65558;SDS011;52203;51.998;5.140;2023-08-08T08:39:06;1.38;;;0.70;;
65558;SDS011;52203;51.998;5.140;2023-08-08T08:41:32;2.05;;;0.70;;
65558;SDS011;52203;51.998;5.140;2023-08-08T08:44:01;2.38;;;0.70;;
65558;SDS011;52203;51.998;5.140;2023-08-08T08:46:27;1.38;;;0.70;;
65558;SDS011;52203;51.998;5.140;2023-08-08T08:48:54;2.03;;;0.70;;
65558;SDS011;52203;51.998;5.140;2023-08-08T08:51:23;2.90;;;0.63;;
65558;SDS011;52203;51.998;5.140;2023-08-08T08:53:49;1.52;;;0.75;;
65558;SDS011;52203;51.998;5.140;2023-08-08T08:56:14;2.65;;;0.60;;
65558;SDS011;52203;51.998;5.140;2023-08-08T08:58:41;1.33;;;0.60;;
65558;SDS011;52203;51.998;5.140;2023-08-08T09:01:07;3.17;;;0.68;;
65558;SDS011;52203;51.998;5.140;2023-08-08T09:03:34;2.35;;;0.60;;
65558;SDS011;52203;51.998;5.140;2023-08-08T09:05:59;3.40;;;0.88;;
65558;SDS011;52203;51.998;5.140;2023-08-08T09:08:25;2.47;;;0.57;;
65558;SDS011;52203;51.998;5.140;2023-08-08T09:10:51;3.40;;;0.75;;
65558;SDS011;52203;51.998;5.140;2023-08-08T09:13:17;1.38;;;0.90;;
65558;SDS011;52203;51.998;5.140;2023-08-08T09:15:44;2.38;;;0.80;;
65558;SDS011;52203;51.998;5.140;2023-08-08T09:18:12;1.88;;;1.08;;
65558;SDS011;52203;51.998;5.140;2023-08-08T09:20:37;1.90;;;0.80;;
65558;SDS011;52203;51.998;5.140;2023-08-08T09:23:03;1.85;;;0.70;;
65558;SDS011;52203;51.998;5.140;2023-08-08T09:25:29;2.15;;;0.80;;
65558;SDS011;52203;51.998;5.140;2023-08-08T09:27:55;2.35;;;0.90;;
65558;SDS011;52203;51.998;5.140;2023-08-08T09:30:20;1.27;;;0.70;;
65558;SDS011;52203;51.998;5.140;2023-08-08T09:32:46;1.88;;;0.90;;
65558;SDS011;52203;51.998;5.140;2023-08-08T09:35:12;0.80;;;0.63;;
65558;SDS011;52203;51.998;5.140;2023-08-08T09:37:38;2.70;;;0.90;;
65558;SDS011;52203;51.998;5.140;2023-08-08T09:40:04;3.13;;;1.02;;
65558;SDS011;52203;51.998;5.140;2023-08-08T09:42:33;4.18;;;0.90;;
65558;SDS011;52203;51.998;5.140;2023-08-08T09:44:59;2.33;;;0.80;;
65558;SDS011;52203;51.998;5.140;2023-08-08T09:47:25;1.70;;;1.00;;
65558;SDS011;52203;51.998;5.140;2023-08-08T09:49:59;2.85;;;1.02;;
65558;SDS011;52203;51.998;5.140;2023-08-08T09:52:27;1.52;;;0.82;;
65558;SDS011;52203;51.998;5.140;2023-08-08T09:54:53;1.50;;;0.85;;
65558;SDS011;52203;51.998;5.140;2023-08-08T09:57:19;2.38;;;0.88;;
65558;SDS011;52203;51.998;5.140;2023-08-08T09:59:45;1.80;;;0.80;;
65558;SDS011;52203;51.998;5.140;2023-08-08T10:02:13;2.92;;;1.10;;
65558;SDS011;52203;51.998;5.140;2023-08-08T10:04:44;1.80;;;0.80;;
65558;SDS011;52203;51.998;5.140;2023-08-08T10:07:11;1.67;;;1.00;;
65558;SDS011;52203;51.998;5.140;2023-08-08T10:09:36;1.42;;;0.88;;
65558;SDS011;52203;51.998;5.140;2023-08-08T10:12:03;1.23;;;0.82;;
65558;SDS011;52203;51.998;5.140;2023-08-08T10:14:30;2.30;;;0.93;;
65558;SDS011;52203;51.998;5.140;2023-08-08T10:16:57;1.13;;;0.70;;
65558;SDS011;52203;51.998;5.140;2023-08-08T10:19:23;2.03;;;1.00;;
65558;SDS011;52203;51.998;5.140;2023-08-08T10:21:54;1.55;;;0.80;;
65558;SDS011;52203;51.998;5.140;2023-08-08T10:24:24;2.20;;;0.90;;
65558;SDS011;52203;51.998;5.140;2023-08-08T10:26:57;2.38;;;0.90;;
65558;SDS011;52203;51.998;5.140;2023-08-08T10:29:25;2.53;;;0.85;;
65558;SDS011;52203;51.998;5.140;2023-08-08T10:32:02;2.83;;;0.80;;
65558;SDS011;52203;51.998;5.140;2023-08-08T10:37:11;2.35;;;1.02;;
65558;SDS011;52203;51.998;5.140;2023-08-08T10:39:48;2.20;;;0.88;;
65558;SDS011;52203;51.998;5.140;2023-08-08T10:42:18;1.63;;;0.80;;
65558;SDS011;52203;51.998;5.140;2023-08-08T10:44:50;2.63;;;1.00;;
65558;SDS011;52203;51.998;5.140;2023-08-08T10:47:21;2.00;;;0.70;;
65558;SDS011;52203;51.998;5.140;2023-08-08T10:50:21;1.75;;;0.82;;
65558;SDS011;52203;51.998;5.140;2023-08-08T10:52:56;2.55;;;0.93;;
65558;SDS011;52203;51.998;5.140;2023-08-08T10:55:36;3.22;;;0.80;;
65558;SDS011;52203;51.998;5.140;2023-08-08T10:58:06;1.63;;;0.90;;
65558;SDS011;52203;51.998;5.140;2023-08-08T11:00:34;2.50;;;1.00;;
65558;SDS011;52203;51.998;5.140;2023-08-08T11:03:01;2.90;;;1.02;;
65558;SDS011;52203;51.998;5.140;2023-08-08T11:05:30;2.13;;;1.00;;
65558;SDS011;52203;51.998;5.140;2023-08-08T11:07:57;2.10;;;0.95;;
65558;SDS011;52203;51.998;5.140;2023-08-08T11:10:24;2.05;;;0.88;;
65558;SDS011;52203;51.998;5.140;2023-08-08T11:13:02;1.60;;;0.85;;
65558;SDS011;52203;51.998;5.140;2023-08-08T11:15:31;1.75;;;0.75;;
65558;SDS011;52203;51.998;5.140;2023-08-08T11:17:57;2.53;;;0.80;;
65558;SDS011;52203;51.998;5.140;2023-08-08T11:20:24;2.25;;;1.00;;
65558;SDS011;52203;51.998;5.140;2023-08-08T11:22:53;2.35;;;0.95;;
65558;SDS011;52203;51.998;5.140;2023-08-08T11:25:21;3.83;;;1.35;;
65558;SDS011;52203;51.998;5.140;2023-08-08T11:27:53;2.13;;;0.90;;
65558;SDS011;52203;51.998;5.140;2023-08-08T11:30:20;2.05;;;0.82;;
65558;SDS011;52203;51.998;5.140;2023-08-08T11:32:47;2.58;;;1.00;;
65558;SDS011;52203;51.998;5.140;2023-08-08T11:35:23;2.15;;;0.90;;
65558;SDS011;52203;51.998;5.140;2023-08-08T11:37:49;2.22;;;0.90;;
65558;SDS011;52203;51.998;5.140;2023-08-08T11:40:21;3.03;;;1.00;;
65558;SDS011;52203;51.998;5.140;2023-08-08T11:42:48;2.97;;;1.00;;
65558;SDS011;52203;51.998;5.140;2023-08-08T11:45:15;3.70;;;0.80;;
65558;SDS011;52203;51.998;5.140;2023-08-08T11:47:41;2.47;;;0.93;;
65558;SDS011;52203;51.998;5.140;2023-08-08T11:50:08;1.48;;;0.80;;
65558;SDS011;52203;51.998;5.140;2023-08-08T11:52:36;2.85;;;1.17;;
65558;SDS011;52203;51.998;5.140;2023-08-08T11:55:05;6.93;;;1.30;;
65558;SDS011;52203;51.998;5.140;2023-08-08T11:57:33;1.77;;;0.90;;
65558;SDS011;52203;51.998;5.140;2023-08-08T12:00:00;2.08;;;1.00;;
65558;SDS011;52203;51.998;5.140;2023-08-08T12:02:29;2.15;;;0.98;;
65558;SDS011;52203;51.998;5.140;2023-08-08T12:04:54;4.15;;;1.40;;
65558;SDS011;52203;51.998;5.140;2023-08-08T12:07:22;3.03;;;0.95;;
65558;SDS011;52203;51.998;5.140;2023-08-08T12:09:47;1.88;;;0.90;;
65558;SDS011;52203;51.998;5.140;2023-08-08T12:12:13;3.13;;;1.10;;
65558;SDS011;52203;51.998;5.140;2023-08-08T12:14:39;3.78;;;0.90;;
65558;SDS011;52203;51.998;5.140;2023-08-08T12:17:05;3.13;;;0.90;;
65558;SDS011;52203;51.998;5.140;2023-08-08T12:19:30;2.33;;;0.93;;
65558;SDS011;52203;51.998;5.140;2023-08-08T12:21:56;1.63;;;0.82;;
65558;SDS011;52203;51.998;5.140;2023-08-08T12:24:22;2.25;;;0.70;;
65558;SDS011;52203;51.998;5.140;2023-08-08T12:26:47;1.35;;;0.80;;
65558;SDS011;52203;51.998;5.140;2023-08-08T12:29:13;3.13;;;0.82;;
65558;SDS011;52203;51.998;5.140;2023-08-08T12:31:38;4.15;;;1.00;;
65558;SDS011;52203;51.998;5.140;2023-08-08T12:34:04;1.58;;;0.63;;
65558;SDS011;52203;51.998;5.140;2023-08-08T12:36:30;1.58;;;0.88;;
65558;SDS011;52203;51.998;5.140;2023-08-08T12:38:56;2.80;;;0.73;;
65558;SDS011;52203;51.998;5.140;2023-08-08T12:41:24;4.10;;;1.00;;
65558;SDS011;52203;51.998;5.140;2023-08-08T12:43:51;2.58;;;1.15;;
65558;SDS011;52203;51.998;5.140;2023-08-08T12:46:16;1.95;;;0.95;;
65558;SDS011;52203;51.998;5.140;2023-08-08T12:48:42;1.90;;;0.90;;
65558;SDS011;52203;51.998;5.140;2023-08-08T12:51:10;1.58;;;0.98;;
65558;SDS011;52203;51.998;5.140;2023-08-08T12:53:36;2.53;;;1.27;;
65558;SDS011;52203;51.998;5.140;2023-08-08T12:56:02;2.90;;;1.10;;
65558;SDS011;52203;51.998;5.140;2023-08-08T12:58:27;1.70;;;1.10;;
65558;SDS011;52203;51.998;5.140;2023-08-08T13:00:53;2.33;;;0.90;;
65558;SDS011;52203;51.998;5.140;2023-08-08T13:03:19;2.15;;;0.80;;
65558;SDS011;52203;51.998;5.140;2023-08-08T13:05:45;2.50;;;1.10;;
65558;SDS011;52203;51.998;5.140;2023-08-08T13:08:11;2.28;;;0.90;;
65558;SDS011;52203;51.998;5.140;2023-08-08T13:10:38;3.30;;;1.08;;
65558;SDS011;52203;51.998;5.140;2023-08-08T13:13:04;3.25;;;0.77;;
65558;SDS011;52203;51.998;5.140;2023-08-08T13:15:29;2.38;;;1.00;;
65558;SDS011;52203;51.998;5.140;2023-08-08T13:17:55;2.47;;;0.90;;
65558;SDS011;52203;51.998;5.140;2023-08-08T13:20:20;1.50;;;0.70;;
65558;SDS011;52203;51.998;5.140;2023-08-08T13:22:47;6.03;;;1.20;;
65558;SDS011;52203;51.998;5.140;2023-08-08T13:25:12;3.53;;;0.90;;
65558;SDS011;52203;51.998;5.140;2023-08-08T13:27:38;3.83;;;1.05;;
65558;SDS011;52203;51.998;5.140;2023-08-08T13:30:04;1.92;;;1.05;;
65558;SDS011;52203;51.998;5.140;2023-08-08T13:32:30;2.22;;;0.90;;
65558;SDS011;52203;51.998;5.140;2023-08-08T13:34:56;3.72;;;1.35;;
65558;SDS011;52203;51.998;5.140;2023-08-08T13:37:21;4.70;;;1.55;;
65558;SDS011;52203;51.998;5.140;2023-08-08T13:39:47;2.80;;;1.10;;
65558;SDS011;52203;51.998;5.140;2023-08-08T13:42:12;2.60;;;0.90;;
65558;SDS011;52203;51.998;5.140;2023-08-08T13:44:38;2.63;;;1.00;;
65558;SDS011;52203;51.998;5.140;2023-08-08T13:47:04;3.33;;;0.90;;
65558;SDS011;52203;51.998;5.140;2023-08-08T13:49:29;2.10;;;1.00;;
65558;SDS011;52203;51.998;5.140;2023-08-08T13:51:55;1.55;;;0.73;;
65558;SDS011;52203;51.998;5.140;2023-08-08T13:54:20;3.67;;;1.17;;
65558;SDS011;52203;51.998;5.140;2023-08-08T13:56:46;3.28;;;0.93;;
65558;SDS011;52203;51.998;5.140;2023-08-08T13:59:12;2.90;;;0.80;;
65558;SDS011;52203;51.998;5.140;2023-08-08T14:01:37;2.63;;;1.13;;
65558;SDS011;52203;51.998;5.140;2023-08-08T14:04:03;3.50;;;1.08;;
65558;SDS011;52203;51.998;5.140;2023-08-08T14:06:29;3.55;;;1.00;;
65558;SDS011;52203;51.998;5.140;2023-08-08T14:08:56;2.88;;;1.00;;
65558;SDS011;52203;51.998;5.140;2023-08-08T14:11:22;2.75;;;1.20;;
65558;SDS011;52203;51.998;5.140;2023-08-08T14:13:47;3.22;;;1.13;;
65558;SDS011;52203;51.998;5.140;2023-08-08T14:16:13;2.30;;;1.13;;
65558;SDS011;52203;51.998;5.140;2023-08-08T14:18:39;2.63;;;1.05;;
65558;SDS011;52203;51.998;5.140;2023-08-08T14:21:05;2.35;;;1.13;;
65558;SDS011;52203;51.998;5.140;2023-08-08T14:23:30;3.70;;;1.30;;
65558;SDS011;52203;51.998;5.140;2023-08-08T14:25:57;4.25;;;1.30;;
65558;SDS011;52203;51.998;5.140;2023-08-08T14:28:22;3.70;;;1.30;;
65558;SDS011;52203;51.998;5.140;2023-08-08T14:30:48;1.80;;;0.95;;
65558;SDS011;52203;51.998;5.140;2023-08-08T14:33:14;1.88;;;1.00;;
65558;SDS011;52203;51.998;5.140;2023-08-08T14:35:41;3.22;;;1.38;;
65558;SDS011;52203;51.998;5.140;2023-08-08T14:38:07;2.95;;;1.15;;
65558;SDS011;52203;51.998;5.140;2023-08-08T14:40:32;2.50;;;1.27;;
65558;SDS011;52203;51.998;5.140;2023-08-08T14:42:59;2.92;;;1.38;;
65558;SDS011;52203;51.998;5.140;2023-08-08T14:45:26;6.68;;;1.15;;
65558;SDS011;52203;51.998;5.140;2023-08-08T14:47:52;3.20;;;1.10;;